sensor_id;sensor_type;location;lat;lon;timestamp;temperature;humidity
9033;DHT22;4551;53.164;8.210;2022-09-16T00:00:09;11.10;99.90
9033;DHT22;4551;53.164;8.210;2022-09-16T00:02:37;11.10;99.90
9033;DHT22;4551;53.164;8.210;2022-09-16T00:05:06;11.00;99.90
9033;DHT22;4551;53.164;8.210;2022-09-16T00:07:34;11.00;99.90
9033;DHT22;4551;53.164;8.210;2022-09-16T00:10:08;11.00;99.90
9033;DHT22;4551;53.164;8.210;2022-09-16T00:12:36;11.00;99.90
9033;DHT22;4551;53.164;8.210;2022-09-16T00:15:04;11.00;99.90
9033;DHT22;4551;53.164;8.210;2022-09-16T00:17:32;11.00;99.90
9033;DHT22;4551;53.164;8.210;2022-09-16T00:20:01;11.00;99.90
9033;DHT22;4551;53.164;8.210;2022-09-16T00:22:29;11.00;99.90
9033;DHT22;4551;53.164;8.210;2022-09-16T00:24:57;11.00;99.90
9033;DHT22;4551;53.164;8.210;2022-09-16T00:27:26;11.00;99.90
9033;DHT22;4551;53.164;8.210;2022-09-16T00:29:54;11.00;99.90
9033;DHT22;4551;53.164;8.210;2022-09-16T00:32:22;11.00;99.90
9033;DHT22;4551;53.164;8.210;2022-09-16T00:34:50;11.00;99.90
9033;DHT22;4551;53.164;8.210;2022-09-16T00:37:19;11.00;99.90
9033;DHT22;4551;53.164;8.210;2022-09-16T00:39:47;11.00;99.90
9033;DHT22;4551;53.164;8.210;2022-09-16T00:42:16;11.00;99.90
9033;DHT22;4551;53.164;8.210;2022-09-16T00:44:52;11.00;99.90
9033;DHT22;4551;53.164;8.210;2022-09-16T00:47:22;11.00;99.90
9033;DHT22;4551;53.164;8.210;2022-09-16T00:49:51;11.00;99.90
9033;DHT22;4551;53.164;8.210;2022-09-16T00:52:21;11.00;99.90
9033;DHT22;4551;53.164;8.210;2022-09-16T00:54:49;11.00;99.90
9033;DHT22;4551;53.164;8.210;2022-09-16T00:57:17;11.00;99.90
9033;DHT22;4551;53.164;8.210;2022-09-16T00:59:46;11.00;99.90
9033;DHT22;4551;53.164;8.210;2022-09-16T01:02:17;11.00;99.90
9033;DHT22;4551;53.164;8.210;2022-09-16T01:04:46;11.00;99.90
9033;DHT22;4551;53.164;8.210;2022-09-16T01:07:17;11.00;99.90
9033;DHT22;4551;53.164;8.210;2022-09-16T01:09:47;11.10;99.90
9033;DHT22;4551;53.164;8.210;2022-09-16T01:12:15;11.10;99.90
9033;DHT22;4551;53.164;8.210;2022-09-16T01:14:43;11.10;99.90
9033;DHT22;4551;53.164;8.210;2022-09-16T01:17:26;11.10;99.90
9033;DHT22;4551;53.164;8.210;2022-09-16T01:20:02;11.10;99.90
9033;DHT22;4551;53.164;8.210;2022-09-16T01:22:38;11.10;99.90
9033;DHT22;4551;53.164;8.210;2022-09-16T01:25:14;11.10;99.90
9033;DHT22;4551;53.164;8.210;2022-09-16T01:27:53;11.10;99.90
9033;DHT22;4551;53.164;8.210;2022-09-16T01:33:24;11.10;99.90
9033;DHT22;4551;53.164;8.210;2022-09-16T01:36:00;11.00;99.90
9033;DHT22;4551;53.164;8.210;2022-09-16T01:38:35;11.00;99.90
9033;DHT22;4551;53.164;8.210;2022-09-16T01:41:07;11.00;99.90
9033;DHT22;4551;53.164;8.210;2022-09-16T01:43:39;11.00;99.90
9033;DHT22;4551;53.164;8.210;2022-09-16T01:46:11;11.00;99.90
9033;DHT22;4551;53.164;8.210;2022-09-16T01:48:46;10.90;99.90
9033;DHT22;4551;53.164;8.210;2022-09-16T01:51:20;10.90;99.90
9033;DHT22;4551;53.164;8.210;2022-09-16T01:53:50;10.90;99.90
9033;DHT22;4551;53.164;8.210;2022-09-16T01:56:21;10.90;99.90
9033;DHT22;4551;53.164;8.210;2022-09-16T01:58:53;10.90;99.90
9033;DHT22;4551;53.164;8.210;2022-09-16T02:01:24;10.90;99.90
9033;DHT22;4551;53.164;8.210;2022-09-16T02:03:57;10.90;99.90
9033;DHT22;4551;53.164;8.210;2022-09-16T02:06:26;10.90;99.90
9033;DHT22;4551;53.164;8.210;2022-09-16T02:08:56;11.00;99.90
9033;DHT22;4551;53.164;8.210;2022-09-16T02:11:25;10.90;99.90
9033;DHT22;4551;53.164;8.210;2022-09-16T02:13:53;11.60;99.90
9033;DHT22;4551;53.164;8.210;2022-09-16T02:16:22;10.90;99.90
9033;DHT22;4551;53.164;8.210;2022-09-16T02:18:55;10.90;99.90
9033;DHT22;4551;53.164;8.210;2022-09-16T02:21:24;10.90;99.90
9033;DHT22;4551;53.164;8.210;2022-09-16T02:23:54;11.00;99.90
9033;DHT22;4551;53.164;8.210;2022-09-16T02:26:26;11.00;99.90
9033;DHT22;4551;53.164;8.210;2022-09-16T02:28:55;11.00;99.90
9033;DHT22;4551;53.164;8.210;2022-09-16T02:31:25;10.90;99.90
9033;DHT22;4551;53.164;8.210;2022-09-16T02:33:56;11.00;99.90
9033;DHT22;4551;53.164;8.210;2022-09-16T02:36:26;11.00;99.90
9033;DHT22;4551;53.164;8.210;2022-09-16T02:38:56;11.00;99.90
9033;DHT22;4551;53.164;8.210;2022-09-16T02:41:26;11.00;99.90
9033;DHT22;4551;53.164;8.210;2022-09-16T02:43:54;11.00;99.90
9033;DHT22;4551;53.164;8.210;2022-09-16T02:46:24;10.90;99.90
9033;DHT22;4551;53.164;8.210;2022-09-16T02:48:56;10.90;99.90
9033;DHT22;4551;53.164;8.210;2022-09-16T02:51:28;11.00;99.90
9033;DHT22;4551;53.164;8.210;2022-09-16T02:53:58;11.00;99.90
9033;DHT22;4551;53.164;8.210;2022-09-16T02:56:28;10.90;99.90
9033;DHT22;4551;53.164;8.210;2022-09-16T02:58:57;10.90;99.90
9033;DHT22;4551;53.164;8.210;2022-09-16T03:01:26;10.90;99.90
9033;DHT22;4551;53.164;8.210;2022-09-16T03:03:56;10.90;99.90
9033;DHT22;4551;53.164;8.210;2022-09-16T03:06:25;10.90;99.90
9033;DHT22;4551;53.164;8.210;2022-09-16T03:08:54;10.90;99.90
9033;DHT22;4551;53.164;8.210;2022-09-16T03:11:31;10.90;99.90
9033;DHT22;4551;53.164;8.210;2022-09-16T03:14:05;10.90;99.90
9033;DHT22;4551;53.164;8.210;2022-09-16T03:16:39;10.90;99.90
9033;DHT22;4551;53.164;8.210;2022-09-16T03:19:14;10.90;99.90
9033;DHT22;4551;53.164;8.210;2022-09-16T03:21:47;10.90;99.90
9033;DHT22;4551;53.164;8.210;2022-09-16T03:24:21;10.90;99.90
9033;DHT22;4551;53.164;8.210;2022-09-16T03:26:55;10.80;99.90
9033;DHT22;4551;53.164;8.210;2022-09-16T03:29:24;10.80;99.90
9033;DHT22;4551;53.164;8.210;2022-09-16T03:31:55;10.80;99.90
9033;DHT22;4551;53.164;8.210;2022-09-16T03:34:27;10.80;99.90
9033;DHT22;4551;53.164;8.210;2022-09-16T03:36:57;10.80;99.90
9033;DHT22;4551;53.164;8.210;2022-09-16T03:39:26;10.80;99.90
9033;DHT22;4551;53.164;8.210;2022-09-16T03:41:53;10.70;99.90
9033;DHT22;4551;53.164;8.210;2022-09-16T03:44:29;10.70;99.90
9033;DHT22;4551;53.164;8.210;2022-09-16T03:46:57;10.70;99.90
9033;DHT22;4551;53.164;8.210;2022-09-16T03:49:27;10.70;99.90
9033;DHT22;4551;53.164;8.210;2022-09-16T03:51:55;10.70;99.90
9033;DHT22;4551;53.164;8.210;2022-09-16T03:54:24;10.70;99.90
9033;DHT22;4551;53.164;8.210;2022-09-16T03:56:52;10.70;99.90
9033;DHT22;4551;53.164;8.210;2022-09-16T03:59:19;10.70;99.90
9033;DHT22;4551;53.164;8.210;2022-09-16T04:01:48;10.70;99.90
9033;DHT22;4551;53.164;8.210;2022-09-16T04:04:16;10.70;99.90
9033;DHT22;4551;53.164;8.210;2022-09-16T04:06:45;10.70;99.90
9033;DHT22;4551;53.164;8.210;2022-09-16T04:09:13;10.60;99.90
9033;DHT22;4551;53.164;8.210;2022-09-16T04:11:42;10.60;99.90
9033;DHT22;4551;53.164;8.210;2022-09-16T04:14:10;10.60;99.90
9033;DHT22;4551;53.164;8.210;2022-09-16T04:16:38;10.60;99.90
9033;DHT22;4551;53.164;8.210;2022-09-16T04:19:11;10.60;99.90
9033;DHT22;4551;53.164;8.210;2022-09-16T04:21:39;10.50;99.90
9033;DHT22;4551;53.164;8.210;2022-09-16T04:24:09;10.50;99.90
9033;DHT22;4551;53.164;8.210;2022-09-16T04:26:39;10.50;99.90
9033;DHT22;4551;53.164;8.210;2022-09-16T04:29:07;10.40;99.90
9033;DHT22;4551;53.164;8.210;2022-09-16T04:31:35;10.40;99.90
9033;DHT22;4551;53.164;8.210;2022-09-16T04:34:03;10.40;99.90
9033;DHT22;4551;53.164;8.210;2022-09-16T04:36:31;10.40;99.90
9033;DHT22;4551;53.164;8.210;2022-09-16T04:38:59;10.30;99.90
9033;DHT22;4551;53.164;8.210;2022-09-16T04:41:28;10.30;99.90
9033;DHT22;4551;53.164;8.210;2022-09-16T04:43:57;10.30;99.90
9033;DHT22;4551;53.164;8.210;2022-09-16T04:46:27;10.30;99.90
9033;DHT22;4551;53.164;8.210;2022-09-16T04:48:56;10.30;99.90
9033;DHT22;4551;53.164;8.210;2022-09-16T04:51:24;10.30;99.90
9033;DHT22;4551;53.164;8.210;2022-09-16T04:53:53;10.20;99.90
9033;DHT22;4551;53.164;8.210;2022-09-16T04:56:22;10.20;99.90
9033;DHT22;4551;53.164;8.210;2022-09-16T04:58:53;10.20;99.90
9033;DHT22;4551;53.164;8.210;2022-09-16T05:01:22;10.20;99.90
9033;DHT22;4551;53.164;8.210;2022-09-16T05:03:51;10.10;99.90
9033;DHT22;4551;53.164;8.210;2022-09-16T05:06:20;10.10;99.90
9033;DHT22;4551;53.164;8.210;2022-09-16T05:08:48;10.10;99.90
9033;DHT22;4551;53.164;8.210;2022-09-16T05:11:17;10.00;99.90
9033;DHT22;4551;53.164;8.210;2022-09-16T05:13:45;10.10;99.90
9033;DHT22;4551;53.164;8.210;2022-09-16T05:16:15;10.10;99.90
9033;DHT22;4551;53.164;8.210;2022-09-16T05:18:43;10.00;99.90
9033;DHT22;4551;53.164;8.210;2022-09-16T05:21:13;10.10;99.90
9033;DHT22;4551;53.164;8.210;2022-09-16T05:23:41;10.10;99.90
9033;DHT22;4551;53.164;8.210;2022-09-16T05:26:13;10.10;99.90
9033;DHT22;4551;53.164;8.210;2022-09-16T05:28:41;10.00;99.90
9033;DHT22;4551;53.164;8.210;2022-09-16T05:31:10;10.00;99.90
9033;DHT22;4551;53.164;8.210;2022-09-16T05:33:40;10.00;99.90
9033;DHT22;4551;53.164;8.210;2022-09-16T05:36:10;10.10;99.90
9033;DHT22;4551;53.164;8.210;2022-09-16T05:38:38;10.10;99.90
9033;DHT22;4551;53.164;8.210;2022-09-16T05:41:06;10.10;99.90
9033;DHT22;4551;53.164;8.210;2022-09-16T05:43:34;10.10;99.90
9033;DHT22;4551;53.164;8.210;2022-09-16T05:46:02;10.10;99.90
9033;DHT22;4551;53.164;8.210;2022-09-16T05:48:31;10.00;99.90
9033;DHT22;4551;53.164;8.210;2022-09-16T05:51:04;10.10;99.90
9033;DHT22;4551;53.164;8.210;2022-09-16T05:53:33;10.00;99.90
9033;DHT22;4551;53.164;8.210;2022-09-16T05:56:01;10.10;99.90
9033;DHT22;4551;53.164;8.210;2022-09-16T05:58:30;10.10;99.90
9033;DHT22;4551;53.164;8.210;2022-09-16T06:00:59;10.10;99.90
9033;DHT22;4551;53.164;8.210;2022-09-16T06:03:27;10.10;99.90
9033;DHT22;4551;53.164;8.210;2022-09-16T06:06:00;10.10;99.90
9033;DHT22;4551;53.164;8.210;2022-09-16T06:08:29;10.10;99.90
9033;DHT22;4551;53.164;8.210;2022-09-16T06:10:58;10.20;99.90
9033;DHT22;4551;53.164;8.210;2022-09-16T06:13:26;10.20;99.90
9033;DHT22;4551;53.164;8.210;2022-09-16T06:15:54;10.20;99.90
9033;DHT22;4551;53.164;8.210;2022-09-16T06:18:23;10.30;99.90
9033;DHT22;4551;53.164;8.210;2022-09-16T06:20:52;10.30;99.90
9033;DHT22;4551;53.164;8.210;2022-09-16T06:23:21;10.40;99.90
9033;DHT22;4551;53.164;8.210;2022-09-16T06:25:57;10.40;99.90
9033;DHT22;4551;53.164;8.210;2022-09-16T06:28:25;10.40;99.90
9033;DHT22;4551;53.164;8.210;2022-09-16T06:30:59;10.50;99.90
9033;DHT22;4551;53.164;8.210;2022-09-16T06:33:28;10.50;99.90
9033;DHT22;4551;53.164;8.210;2022-09-16T06:35:56;10.50;99.90
9033;DHT22;4551;53.164;8.210;2022-09-16T06:38:25;10.50;99.90
9033;DHT22;4551;53.164;8.210;2022-09-16T06:40:56;10.50;99.90
9033;DHT22;4551;53.164;8.210;2022-09-16T06:43:24;10.50;99.90
9033;DHT22;4551;53.164;8.210;2022-09-16T06:45:55;10.60;99.90
9033;DHT22;4551;53.164;8.210;2022-09-16T06:48:23;10.60;99.90
9033;DHT22;4551;53.164;8.210;2022-09-16T06:50:56;10.70;99.90
9033;DHT22;4551;53.164;8.210;2022-09-16T06:53:25;10.70;99.90
9033;DHT22;4551;53.164;8.210;2022-09-16T06:55:53;10.70;99.90
9033;DHT22;4551;53.164;8.210;2022-09-16T06:58:21;10.80;99.90
9033;DHT22;4551;53.164;8.210;2022-09-16T07:00:49;10.90;99.90
9033;DHT22;4551;53.164;8.210;2022-09-16T07:03:17;11.00;99.90
9033;DHT22;4551;53.164;8.210;2022-09-16T07:06:04;11.00;99.90
9033;DHT22;4551;53.164;8.210;2022-09-16T07:08:34;11.10;99.90
9033;DHT22;4551;53.164;8.210;2022-09-16T07:11:02;11.10;99.90
9033;DHT22;4551;53.164;8.210;2022-09-16T07:13:31;11.10;99.90
9033;DHT22;4551;53.164;8.210;2022-09-16T07:15:59;11.10;99.90
9033;DHT22;4551;53.164;8.210;2022-09-16T07:18:39;11.10;99.90
9033;DHT22;4551;53.164;8.210;2022-09-16T07:21:08;11.10;99.90
9033;DHT22;4551;53.164;8.210;2022-09-16T07:23:38;11.20;99.90
9033;DHT22;4551;53.164;8.210;2022-09-16T07:26:07;11.20;99.90
9033;DHT22;4551;53.164;8.210;2022-09-16T07:28:36;11.20;99.90
9033;DHT22;4551;53.164;8.210;2022-09-16T07:31:05;11.20;99.90
9033;DHT22;4551;53.164;8.210;2022-09-16T07:33:34;11.30;99.90
9033;DHT22;4551;53.164;8.210;2022-09-16T07:36:03;11.30;99.90
9033;DHT22;4551;53.164;8.210;2022-09-16T07:38:31;11.30;99.90
9033;DHT22;4551;53.164;8.210;2022-09-16T07:41:04;11.40;99.90
9033;DHT22;4551;53.164;8.210;2022-09-16T07:43:32;11.40;99.90
9033;DHT22;4551;53.164;8.210;2022-09-16T07:46:00;11.50;99.90
9033;DHT22;4551;53.164;8.210;2022-09-16T07:48:28;11.50;99.90
9033;DHT22;4551;53.164;8.210;2022-09-16T07:51:01;11.60;99.90
9033;DHT22;4551;53.164;8.210;2022-09-16T07:53:29;11.60;99.90
9033;DHT22;4551;53.164;8.210;2022-09-16T07:56:00;11.60;99.90
9033;DHT22;4551;53.164;8.210;2022-09-16T07:58:29;11.70;99.90
9033;DHT22;4551;53.164;8.210;2022-09-16T08:00:57;11.80;99.90
9033;DHT22;4551;53.164;8.210;2022-09-16T08:03:30;11.80;99.90
9033;DHT22;4551;53.164;8.210;2022-09-16T08:05:58;11.90;99.90
9033;DHT22;4551;53.164;8.210;2022-09-16T08:08:27;12.00;99.90
9033;DHT22;4551;53.164;8.210;2022-09-16T08:10:55;12.00;99.90
9033;DHT22;4551;53.164;8.210;2022-09-16T08:13:23;12.10;99.90
9033;DHT22;4551;53.164;8.210;2022-09-16T08:15:53;12.10;99.90
9033;DHT22;4551;53.164;8.210;2022-09-16T08:18:21;12.20;99.90
9033;DHT22;4551;53.164;8.210;2022-09-16T08:20:49;12.20;99.90
9033;DHT22;4551;53.164;8.210;2022-09-16T08:23:17;12.30;99.90
9033;DHT22;4551;53.164;8.210;2022-09-16T08:25:45;12.30;99.90
9033;DHT22;4551;53.164;8.210;2022-09-16T08:28:14;12.40;99.90
9033;DHT22;4551;53.164;8.210;2022-09-16T08:30:47;12.50;99.90
9033;DHT22;4551;53.164;8.210;2022-09-16T08:33:20;12.50;99.90
9033;DHT22;4551;53.164;8.210;2022-09-16T08:36:01;12.60;99.90
9033;DHT22;4551;53.164;8.210;2022-09-16T08:38:30;12.60;99.90
9033;DHT22;4551;53.164;8.210;2022-09-16T08:41:00;12.60;99.90
9033;DHT22;4551;53.164;8.210;2022-09-16T08:43:31;12.70;99.90
9033;DHT22;4551;53.164;8.210;2022-09-16T08:46:03;12.80;99.90
9033;DHT22;4551;53.164;8.210;2022-09-16T08:48:40;12.60;99.90
9033;DHT22;4551;53.164;8.210;2022-09-16T08:51:14;12.90;99.90
9033;DHT22;4551;53.164;8.210;2022-09-16T08:53:42;13.00;99.90
9033;DHT22;4551;53.164;8.210;2022-09-16T08:56:13;13.00;99.90
9033;DHT22;4551;53.164;8.210;2022-09-16T08:58:42;13.00;99.90
9033;DHT22;4551;53.164;8.210;2022-09-16T09:01:13;13.10;99.90
9033;DHT22;4551;53.164;8.210;2022-09-16T09:03:45;13.20;99.90
9033;DHT22;4551;53.164;8.210;2022-09-16T09:06:19;13.20;99.90
9033;DHT22;4551;53.164;8.210;2022-09-16T09:08:51;13.30;99.90
9033;DHT22;4551;53.164;8.210;2022-09-16T09:11:23;13.40;99.90
9033;DHT22;4551;53.164;8.210;2022-09-16T09:13:59;13.40;99.90
9033;DHT22;4551;53.164;8.210;2022-09-16T09:16:33;13.50;99.90
9033;DHT22;4551;53.164;8.210;2022-09-16T09:19:08;13.50;99.90
9033;DHT22;4551;53.164;8.210;2022-09-16T09:21:40;13.50;99.90
9033;DHT22;4551;53.164;8.210;2022-09-16T09:24:19;13.60;99.90
9033;DHT22;4551;53.164;8.210;2022-09-16T09:26:48;13.60;99.90
9033;DHT22;4551;53.164;8.210;2022-09-16T09:32:02;13.60;99.90
9033;DHT22;4551;53.164;8.210;2022-09-16T09:34:39;13.70;99.90
9033;DHT22;4551;53.164;8.210;2022-09-16T09:37:14;13.80;99.90
9033;DHT22;4551;53.164;8.210;2022-09-16T09:39:54;13.90;99.90
9033;DHT22;4551;53.164;8.210;2022-09-16T09:42:27;14.00;99.90
9033;DHT22;4551;53.164;8.210;2022-09-16T09:44:57;14.00;99.90
9033;DHT22;4551;53.164;8.210;2022-09-16T09:47:31;14.00;99.90
9033;DHT22;4551;53.164;8.210;2022-09-16T09:50:07;14.10;99.90
9033;DHT22;4551;53.164;8.210;2022-09-16T09:52:40;14.10;99.90
9033;DHT22;4551;53.164;8.210;2022-09-16T09:55:12;14.20;99.90
9033;DHT22;4551;53.164;8.210;2022-09-16T09:57:46;14.30;99.90
9033;DHT22;4551;53.164;8.210;2022-09-16T10:00:16;14.30;99.90
9033;DHT22;4551;53.164;8.210;2022-09-16T10:02:46;14.40;99.90
9033;DHT22;4551;53.164;8.210;2022-09-16T10:05:19;14.50;99.90
9033;DHT22;4551;53.164;8.210;2022-09-16T10:07:48;14.50;99.90
9033;DHT22;4551;53.164;8.210;2022-09-16T10:10:18;14.50;99.90
9033;DHT22;4551;53.164;8.210;2022-09-16T10:12:47;14.30;99.90
9033;DHT22;4551;53.164;8.210;2022-09-16T10:15:20;14.30;99.90
9033;DHT22;4551;53.164;8.210;2022-09-16T10:17:48;14.20;99.90
9033;DHT22;4551;53.164;8.210;2022-09-16T10:20:23;14.10;99.90
9033;DHT22;4551;53.164;8.210;2022-09-16T10:22:53;13.90;99.90
9033;DHT22;4551;53.164;8.210;2022-09-16T10:25:22;13.70;99.90
9033;DHT22;4551;53.164;8.210;2022-09-16T10:27:55;13.50;99.90
9033;DHT22;4551;53.164;8.210;2022-09-16T10:30:24;13.40;99.90
9033;DHT22;4551;53.164;8.210;2022-09-16T10:32:53;13.40;99.90
9033;DHT22;4551;53.164;8.210;2022-09-16T10:35:24;13.50;99.90
9033;DHT22;4551;53.164;8.210;2022-09-16T10:37:54;13.50;99.90
9033;DHT22;4551;53.164;8.210;2022-09-16T10:40:23;13.60;99.90
9033;DHT22;4551;53.164;8.210;2022-09-16T10:42:52;13.60;99.90
9033;DHT22;4551;53.164;8.210;2022-09-16T10:45:24;13.80;99.90
9033;DHT22;4551;53.164;8.210;2022-09-16T10:47:54;13.80;99.90
9033;DHT22;4551;53.164;8.210;2022-09-16T10:50:29;14.00;99.90
9033;DHT22;4551;53.164;8.210;2022-09-16T10:52:57;14.10;99.90
9033;DHT22;4551;53.164;8.210;2022-09-16T10:55:26;14.10;99.90
9033;DHT22;4551;53.164;8.210;2022-09-16T10:58:05;14.20;99.90
9033;DHT22;4551;53.164;8.210;2022-09-16T11:00:35;14.40;99.90
9033;DHT22;4551;53.164;8.210;2022-09-16T11:06:02;14.60;99.90
9033;DHT22;4551;53.164;8.210;2022-09-16T11:08:35;14.60;99.90
9033;DHT22;4551;53.164;8.210;2022-09-16T11:11:07;14.50;99.90
9033;DHT22;4551;53.164;8.210;2022-09-16T11:13:40;14.40;99.90
9033;DHT22;4551;53.164;8.210;2022-09-16T11:16:15;14.40;99.90
9033;DHT22;4551;53.164;8.210;2022-09-16T11:18:48;14.30;99.90
9033;DHT22;4551;53.164;8.210;2022-09-16T11:21:32;14.10;99.90
9033;DHT22;4551;53.164;8.210;2022-09-16T11:24:10;14.10;99.90
9033;DHT22;4551;53.164;8.210;2022-09-16T11:26:43;14.00;99.90
9033;DHT22;4551;53.164;8.210;2022-09-16T11:29:33;14.00;99.90
9033;DHT22;4551;53.164;8.210;2022-09-16T11:32:08;14.10;99.90
9033;DHT22;4551;53.164;8.210;2022-09-16T11:34:42;14.10;99.90
9033;DHT22;4551;53.164;8.210;2022-09-16T11:37:17;14.20;99.90
9033;DHT22;4551;53.164;8.210;2022-09-16T11:39:51;14.40;99.90
9033;DHT22;4551;53.164;8.210;2022-09-16T11:42:25;14.50;99.90
9033;DHT22;4551;53.164;8.210;2022-09-16T11:44:56;14.50;99.90
9033;DHT22;4551;53.164;8.210;2022-09-16T11:47:39;14.50;99.90
9033;DHT22;4551;53.164;8.210;2022-09-16T11:50:18;14.50;99.90
9033;DHT22;4551;53.164;8.210;2022-09-16T11:52:55;14.40;99.90
9033;DHT22;4551;53.164;8.210;2022-09-16T11:55:34;14.30;99.90
9033;DHT22;4551;53.164;8.210;2022-09-16T11:58:08;14.20;99.90
9033;DHT22;4551;53.164;8.210;2022-09-16T12:00:37;14.20;99.90
9033;DHT22;4551;53.164;8.210;2022-09-16T12:03:08;14.10;99.90
9033;DHT22;4551;53.164;8.210;2022-09-16T12:05:38;14.20;99.90
9033;DHT22;4551;53.164;8.210;2022-09-16T12:08:10;14.20;99.90
9033;DHT22;4551;53.164;8.210;2022-09-16T12:10:41;14.30;99.90
9033;DHT22;4551;53.164;8.210;2022-09-16T12:13:12;14.30;99.90
9033;DHT22;4551;53.164;8.210;2022-09-16T12:15:43;14.40;99.90
9033;DHT22;4551;53.164;8.210;2022-09-16T12:18:14;14.50;99.90
9033;DHT22;4551;53.164;8.210;2022-09-16T12:20:43;14.60;99.90
9033;DHT22;4551;53.164;8.210;2022-09-16T12:23:14;14.60;99.90
9033;DHT22;4551;53.164;8.210;2022-09-16T12:25:44;14.80;99.90
9033;DHT22;4551;53.164;8.210;2022-09-16T12:28:14;14.90;99.90
9033;DHT22;4551;53.164;8.210;2022-09-16T12:30:43;14.90;99.90
9033;DHT22;4551;53.164;8.210;2022-09-16T12:33:13;15.00;99.90
9033;DHT22;4551;53.164;8.210;2022-09-16T12:35:44;15.00;99.90
9033;DHT22;4551;53.164;8.210;2022-09-16T12:38:17;15.10;99.90
9033;DHT22;4551;53.164;8.210;2022-09-16T12:40:50;15.10;99.90
9033;DHT22;4551;53.164;8.210;2022-09-16T12:51:51;15.70;99.90
9033;DHT22;4551;53.164;8.210;2022-09-16T12:54:33;15.30;99.90
9033;DHT22;4551;53.164;8.210;2022-09-16T12:57:31;15.20;99.90
9033;DHT22;4551;53.164;8.210;2022-09-16T13:00:04;14.90;99.90
9033;DHT22;4551;53.164;8.210;2022-09-16T13:02:36;14.70;99.90
9033;DHT22;4551;53.164;8.210;2022-09-16T13:05:09;14.60;99.90
9033;DHT22;4551;53.164;8.210;2022-09-16T13:07:38;14.50;99.90
9033;DHT22;4551;53.164;8.210;2022-09-16T13:10:14;14.50;99.90
9033;DHT22;4551;53.164;8.210;2022-09-16T13:12:50;14.50;99.90
9033;DHT22;4551;53.164;8.210;2022-09-16T13:15:24;14.50;99.90
9033;DHT22;4551;53.164;8.210;2022-09-16T13:17:52;14.60;99.90
9033;DHT22;4551;53.164;8.210;2022-09-16T13:20:23;14.60;99.90
9033;DHT22;4551;53.164;8.210;2022-09-16T13:22:56;14.60;99.90
9033;DHT22;4551;53.164;8.210;2022-09-16T13:25:29;14.60;99.90
9033;DHT22;4551;53.164;8.210;2022-09-16T13:28:00;14.60;99.90
9033;DHT22;4551;53.164;8.210;2022-09-16T13:30:33;14.60;99.90
9033;DHT22;4551;53.164;8.210;2022-09-16T13:33:21;14.60;99.90
9033;DHT22;4551;53.164;8.210;2022-09-16T13:36:12;14.50;99.90
9033;DHT22;4551;53.164;8.210;2022-09-16T13:38:41;14.50;99.90
9033;DHT22;4551;53.164;8.210;2022-09-16T13:41:11;14.40;99.90
9033;DHT22;4551;53.164;8.210;2022-09-16T13:43:50;14.40;99.90
9033;DHT22;4551;53.164;8.210;2022-09-16T13:46:26;14.30;99.90
9033;DHT22;4551;53.164;8.210;2022-09-16T13:48:55;14.30;99.90
9033;DHT22;4551;53.164;8.210;2022-09-16T13:51:25;14.20;99.90
9033;DHT22;4551;53.164;8.210;2022-09-16T13:53:53;14.20;99.90
9033;DHT22;4551;53.164;8.210;2022-09-16T13:56:39;14.20;99.90
9033;DHT22;4551;53.164;8.210;2022-09-16T13:59:24;14.20;99.90
9033;DHT22;4551;53.164;8.210;2022-09-16T14:01:59;14.10;99.90
9033;DHT22;4551;53.164;8.210;2022-09-16T14:04:33;14.10;99.90
9033;DHT22;4551;53.164;8.210;2022-09-16T14:07:11;14.10;99.90
9033;DHT22;4551;53.164;8.210;2022-09-16T14:09:43;14.10;99.90
9033;DHT22;4551;53.164;8.210;2022-09-16T14:12:22;14.10;99.90
9033;DHT22;4551;53.164;8.210;2022-09-16T14:14:51;14.00;99.90
9033;DHT22;4551;53.164;8.210;2022-09-16T14:17:19;14.00;99.90
9033;DHT22;4551;53.164;8.210;2022-09-16T14:19:48;13.90;99.90
9033;DHT22;4551;53.164;8.210;2022-09-16T14:22:19;13.90;99.90
9033;DHT22;4551;53.164;8.210;2022-09-16T14:24:48;13.90;99.90
9033;DHT22;4551;53.164;8.210;2022-09-16T14:27:34;13.90;99.90
9033;DHT22;4551;53.164;8.210;2022-09-16T14:30:05;13.80;99.90
9033;DHT22;4551;53.164;8.210;2022-09-16T14:32:34;13.70;99.90
9033;DHT22;4551;53.164;8.210;2022-09-16T14:35:03;13.60;99.90
9033;DHT22;4551;53.164;8.210;2022-09-16T14:37:35;13.50;99.90
9033;DHT22;4551;53.164;8.210;2022-09-16T14:40:05;13.50;99.90
9033;DHT22;4551;53.164;8.210;2022-09-16T14:42:38;13.40;99.90
9033;DHT22;4551;53.164;8.210;2022-09-16T14:45:12;13.30;99.90
9033;DHT22;4551;53.164;8.210;2022-09-16T14:47:42;13.30;99.90
9033;DHT22;4551;53.164;8.210;2022-09-16T14:50:19;13.20;99.90
9033;DHT22;4551;53.164;8.210;2022-09-16T14:52:52;13.10;99.90
9033;DHT22;4551;53.164;8.210;2022-09-16T14:55:21;13.10;99.90
9033;DHT22;4551;53.164;8.210;2022-09-16T14:57:50;13.00;99.90
9033;DHT22;4551;53.164;8.210;2022-09-16T15:00:18;13.00;99.90
9033;DHT22;4551;53.164;8.210;2022-09-16T15:02:47;12.90;99.90
9033;DHT22;4551;53.164;8.210;2022-09-16T15:05:19;12.80;99.90
9033;DHT22;4551;53.164;8.210;2022-09-16T15:07:48;12.80;99.90
9033;DHT22;4551;53.164;8.210;2022-09-16T15:10:37;12.80;99.90
9033;DHT22;4551;53.164;8.210;2022-09-16T15:13:23;12.70;99.90
9033;DHT22;4551;53.164;8.210;2022-09-16T15:15:53;12.70;99.90
9033;DHT22;4551;53.164;8.210;2022-09-16T15:18:22;12.60;99.90
9033;DHT22;4551;53.164;8.210;2022-09-16T15:20:55;12.60;99.90
9033;DHT22;4551;53.164;8.210;2022-09-16T15:23:26;12.50;99.90
9033;DHT22;4551;53.164;8.210;2022-09-16T15:25:55;12.50;99.90
9033;DHT22;4551;53.164;8.210;2022-09-16T15:28:25;12.40;99.90
9033;DHT22;4551;53.164;8.210;2022-09-16T15:30:53;12.40;99.90
9033;DHT22;4551;53.164;8.210;2022-09-16T15:33:25;12.40;99.90
9033;DHT22;4551;53.164;8.210;2022-09-16T15:36:00;12.40;99.90
9033;DHT22;4551;53.164;8.210;2022-09-16T15:38:28;12.30;99.90
9033;DHT22;4551;53.164;8.210;2022-09-16T15:41:00;12.30;99.90
9033;DHT22;4551;53.164;8.210;2022-09-16T15:43:32;12.30;99.90
9033;DHT22;4551;53.164;8.210;2022-09-16T15:46:02;12.30;99.90
9033;DHT22;4551;53.164;8.210;2022-09-16T15:48:32;12.30;99.90
9033;DHT22;4551;53.164;8.210;2022-09-16T15:51:02;12.30;99.90
9033;DHT22;4551;53.164;8.210;2022-09-16T15:53:39;12.20;99.90
9033;DHT22;4551;53.164;8.210;2022-09-16T15:56:15;12.20;99.90
9033;DHT22;4551;53.164;8.210;2022-09-16T15:58:47;12.20;99.90
9033;DHT22;4551;53.164;8.210;2022-09-16T16:01:16;12.20;99.90
9033;DHT22;4551;53.164;8.210;2022-09-16T16:03:51;12.20;99.90
9033;DHT22;4551;53.164;8.210;2022-09-16T16:06:20;12.20;99.90
9033;DHT22;4551;53.164;8.210;2022-09-16T16:08:48;12.20;99.90
9033;DHT22;4551;53.164;8.210;2022-09-16T16:11:17;12.20;99.90
9033;DHT22;4551;53.164;8.210;2022-09-16T16:13:47;12.20;99.90
9033;DHT22;4551;53.164;8.210;2022-09-16T16:16:16;12.20;99.90
9033;DHT22;4551;53.164;8.210;2022-09-16T16:18:45;12.20;99.90
9033;DHT22;4551;53.164;8.210;2022-09-16T16:21:13;12.20;99.90
9033;DHT22;4551;53.164;8.210;2022-09-16T16:23:42;12.10;99.90
9033;DHT22;4551;53.164;8.210;2022-09-16T16:26:10;12.10;99.90
9033;DHT22;4551;53.164;8.210;2022-09-16T16:28:38;12.10;99.90
9033;DHT22;4551;53.164;8.210;2022-09-16T16:31:08;12.10;99.90
9033;DHT22;4551;53.164;8.210;2022-09-16T16:33:36;12.10;99.90
9033;DHT22;4551;53.164;8.210;2022-09-16T16:36:09;12.10;99.90
9033;DHT22;4551;53.164;8.210;2022-09-16T16:38:37;12.00;99.90
9033;DHT22;4551;53.164;8.210;2022-09-16T16:41:06;12.00;99.90
9033;DHT22;4551;53.164;8.210;2022-09-16T16:43:34;12.00;99.90